Time;durP1;ratioP1;P1;durP2;ratioP2;P2;SDS_P1;SDS_P2;PMS_P1;PMS_P2;Temp;Humidity;BMP_temperature;BMP_pressure;BME280_temperature;BME280_humidity;BME280_pressure;Samples;Min_cycle;Max_cycle;Signal;HPM_P1;HPM_P2
2023/05/13 00:01:12;;;;;;;0.10;0.10;;;;;;;;;;4956022;28;20115;-75
2023/05/13 00:03:58;;;;;;;0.20;0.20;;;;;;;;;;4955117;28;20198;-76
2023/05/13 00:06:43;;;;;;;0.10;0.10;;;;;;;;;;4954511;28;20736;-77
2023/05/13 00:09:29;;;;;;;0.20;0.20;;;;;;;;;;4957419;28;20043;-77
2023/05/13 00:12:15;;;;;;;0.20;0.20;;;;;;;;;;4958305;28;20046;-76
2023/05/13 00:15:00;;;;;;;0.10;0.10;;;;;;;;;;4956899;28;20371;-76
2023/05/13 00:17:46;;;;;;;0.13;0.13;;;;;;;;;;4957194;28;20807;-76
2023/05/13 00:20:32;;;;;;;0.10;0.10;;;;;;;;;;4955249;28;20046;-76
2023/05/13 00:23:17;;;;;;;0.10;0.10;;;;;;;;;;4955172;28;20042;-77
2023/05/13 00:26:03;;;;;;;0.10;0.10;;;;;;;;;;4955633;28;20038;-77
2023/05/13 00:28:49;;;;;;;0.10;0.10;;;;;;;;;;4955057;28;20048;-77
2023/05/13 00:31:35;;;;;;;0.10;0.10;;;;;;;;;;4940752;28;20093;-77
2023/05/13 00:34:21;;;;;;;0.10;0.10;;;;;;;;;;4956788;28;20357;-77
2023/05/13 00:37:09;;;;;;;0.10;0.10;;;;;;;;;;4958886;28;20174;-77
2023/05/13 00:39:54;;;;;;;0.30;0.20;;;;;;;;;;4943320;28;20030;-76
2023/05/13 00:42:40;;;;;;;0.10;0.10;;;;;;;;;;4958865;28;20062;-77
2023/05/13 00:45:26;;;;;;;0.10;0.10;;;;;;;;;;4958895;28;20409;-76
2023/05/13 00:48:12;;;;;;;0.10;0.10;;;;;;;;;;4960054;28;20058;-76
2023/05/13 00:50:58;;;;;;;0.10;0.10;;;;;;;;;;4960110;28;20031;-76
2023/05/13 00:53:44;;;;;;;0.20;0.20;;;;;;;;;;4958060;28;20047;-76
2023/05/13 00:56:29;;;;;;;0.10;0.10;;;;;;;;;;4959293;28;20031;-76
2023/05/13 00:59:15;;;;;;;0.10;0.10;;;;;;;;;;4957673;28;20038;-77
2023/05/13 01:02:04;;;;;;;0.10;0.10;;;;;;;;;;4958915;28;20041;-77
2023/05/13 01:05:02;;;;;;;0.10;0.10;;;;;;;;;;4957141;28;20486;-77
2023/05/13 01:07:53;;;;;;;0.10;0.10;;;;;;;;;;4959397;28;20074;-76
2023/05/13 01:10:39;;;;;;;0.10;0.10;;;;;;;;;;4943243;28;20424;-76
2023/05/13 01:13:32;;;;;;;0.10;0.10;;;;;;;;;;4958910;28;20035;-76
2023/05/13 01:16:20;;;;;;;0.10;0.10;;;;;;;;;;4959497;28;20772;-76
2023/05/13 01:19:11;;;;;;;0.10;0.10;;;;;;;;;;4957401;28;20207;-76
2023/05/13 01:21:57;;;;;;;0.10;0.10;;;;;;;;;;4958882;28;20724;-76
2023/05/13 01:24:44;;;;;;;0.10;0.10;;;;;;;;;;4955658;28;20117;-76
2023/05/13 01:27:30;;;;;;;0.10;0.10;;;;;;;;;;4956906;28;20046;-76
2023/05/13 01:30:16;;;;;;;0.10;0.10;;;;;;;;;;4958293;28;20039;-76
2023/05/13 01:33:02;;;;;;;0.13;0.13;;;;;;;;;;4957450;28;20841;-76
2023/05/13 01:35:50;;;;;;;0.10;0.10;;;;;;;;;;4955766;28;21017;-76
2023/05/13 01:38:38;;;;;;;0.20;0.20;;;;;;;;;;4941570;28;20031;-76
2023/05/13 01:41:23;;;;;;;0.10;0.10;;;;;;;;;;4944190;28;20050;-76
2023/05/13 01:44:10;;;;;;;0.20;0.20;;;;;;;;;;4944381;28;20050;-76
2023/05/13 01:46:55;;;;;;;0.10;0.10;;;;;;;;;;4959182;28;20234;-76
2023/05/13 01:49:42;;;;;;;0.10;0.10;;;;;;;;;;4940344;28;20042;-76
2023/05/13 01:52:28;;;;;;;0.10;0.10;;;;;;;;;;4958577;28;20046;-76
2023/05/13 01:55:14;;;;;;;0.10;0.10;;;;;;;;;;4957938;28;20096;-76
2023/05/13 01:58:02;;;;;;;0.10;0.10;;;;;;;;;;4957482;28;20442;-76
2023/05/13 02:00:48;;;;;;;0.10;0.10;;;;;;;;;;4941254;28;20331;-76
2023/05/13 02:03:34;;;;;;;0.10;0.10;;;;;;;;;;4942028;28;20415;-76
2023/05/13 02:06:19;;;;;;;0.10;0.10;;;;;;;;;;4958854;28;20112;-77
2023/05/13 02:09:05;;;;;;;0.10;0.10;;;;;;;;;;4957721;28;20034;-77
2023/05/13 02:11:51;;;;;;;0.10;0.10;;;;;;;;;;4954488;28;20453;-77
2023/05/13 02:14:37;;;;;;;0.10;0.10;;;;;;;;;;4955933;28;20065;-77
2023/05/13 02:17:23;;;;;;;0.10;0.10;;;;;;;;;;4957763;28;20042;-77
2023/05/13 02:20:09;;;;;;;0.10;0.10;;;;;;;;;;4955828;28;20595;-77
2023/05/13 02:22:55;;;;;;;0.10;0.10;;;;;;;;;;4956991;28;20105;-77
2023/05/13 02:25:41;;;;;;;0.10;0.10;;;;;;;;;;4956898;28;20454;-76
2023/05/13 02:28:27;;;;;;;0.10;0.10;;;;;;;;;;4957041;28;20163;-77
2023/05/13 02:31:12;;;;;;;0.10;0.10;;;;;;;;;;4957676;28;20458;-77
2023/05/13 02:34:00;;;;;;;0.10;0.10;;;;;;;;;;4940304;28;20570;-77
2023/05/13 02:36:47;;;;;;;0.20;0.20;;;;;;;;;;4957971;28;20034;-77
2023/05/13 02:39:33;;;;;;;0.10;0.10;;;;;;;;;;4955842;28;20231;-77
2023/05/13 02:42:19;;;;;;;0.10;0.10;;;;;;;;;;4957110;28;20145;-77
2023/05/13 02:45:06;;;;;;;0.10;0.10;;;;;;;;;;4941228;28;20116;-77
2023/05/13 02:47:56;;;;;;;0.10;0.10;;;;;;;;;;4943073;28;20035;-76
2023/05/13 02:50:42;;;;;;;0.10;0.10;;;;;;;;;;4942348;28;20118;-76
2023/05/13 02:53:29;;;;;;;0.10;0.10;;;;;;;;;;4955740;28;20047;-77
2023/05/13 02:56:20;;;;;;;0.10;0.10;;;;;;;;;;4944864;28;20019;-77
2023/05/13 02:59:10;;;;;;;0.10;0.10;;;;;;;;;;4956745;28;20137;-77
2023/05/13 03:01:56;;;;;;;0.10;0.10;;;;;;;;;;4942418;28;20041;-77
2023/05/13 03:04:41;;;;;;;0.10;0.10;;;;;;;;;;4954356;28;20069;-77
2023/05/13 03:07:27;;;;;;;0.10;0.10;;;;;;;;;;4955584;28;20039;-77
2023/05/13 03:10:13;;;;;;;0.10;0.10;;;;;;;;;;4954255;28;20039;-77
2023/05/13 03:12:58;;;;;;;0.10;0.10;;;;;;;;;;4940022;28;20129;-77
2023/05/13 03:15:44;;;;;;;0.10;0.10;;;;;;;;;;4942144;28;20031;-76
2023/05/13 03:18:31;;;;;;;0.10;0.10;;;;;;;;;;4955385;28;20035;-77
2023/05/13 03:21:18;;;;;;;0.10;0.10;;;;;;;;;;4941419;28;20038;-76
2023/05/13 03:24:04;;;;;;;0.10;0.10;;;;;;;;;;4940922;28;20038;-77
2023/05/13 03:26:52;;;;;;;0.17;0.17;;;;;;;;;;4940309;28;20093;-76
2023/05/13 03:29:38;;;;;;;0.10;0.10;;;;;;;;;;4923866;28;20058;-77
2023/05/13 03:32:29;;;;;;;0.10;0.10;;;;;;;;;;4937640;28;20528;-76
2023/05/13 03:35:16;;;;;;;0.10;0.10;;;;;;;;;;4935554;28;20047;-76
2023/05/13 03:38:05;;;;;;;0.10;0.10;;;;;;;;;;4921029;28;20523;-77
2023/05/13 03:40:54;;;;;;;0.10;0.10;;;;;;;;;;4921802;28;20437;-77
2023/05/13 03:43:40;;;;;;;0.10;0.10;;;;;;;;;;4936327;28;20055;-76
2023/05/13 03:46:29;;;;;;;0.10;0.10;;;;;;;;;;4920600;29;20039;-77
2023/05/13 03:49:15;;;;;;;0.10;0.10;;;;;;;;;;4923753;28;20564;-77
2023/05/13 03:52:01;;;;;;;0.10;0.10;;;;;;;;;;4937262;28;20147;-76
2023/05/13 03:54:47;;;;;;;0.13;0.13;;;;;;;;;;4922620;28;20050;-76
2023/05/13 03:57:32;;;;;;;0.10;0.10;;;;;;;;;;4936623;28;20575;-77
2023/05/13 04:00:18;;;;;;;0.10;0.10;;;;;;;;;;4934006;28;20160;-76
2023/05/13 04:03:06;;;;;;;0.20;0.17;;;;;;;;;;4938012;28;20043;-77
2023/05/13 04:05:52;;;;;;;0.10;0.10;;;;;;;;;;4939720;28;20097;-77
2023/05/13 04:08:37;;;;;;;0.10;0.10;;;;;;;;;;4935675;28;20118;-77
2023/05/13 04:11:23;;;;;;;0.10;0.10;;;;;;;;;;4924440;28;20031;-76
2023/05/13 04:14:09;;;;;;;0.10;0.10;;;;;;;;;;4938343;28;20389;-76
2023/05/13 04:16:54;;;;;;;0.10;0.10;;;;;;;;;;4937793;28;20502;-76
2023/05/13 04:19:40;;;;;;;0.10;0.10;;;;;;;;;;4936504;28;20374;-76
2023/05/13 04:22:29;;;;;;;0.10;0.10;;;;;;;;;;4936378;28;20046;-76
2023/05/13 04:25:15;;;;;;;0.10;0.10;;;;;;;;;;4937744;28;20090;-76
2023/05/13 04:28:01;;;;;;;0.10;0.10;;;;;;;;;;4943442;28;20269;-76
2023/05/13 04:30:51;;;;;;;0.10;0.10;;;;;;;;;;4954736;28;20567;-76
2023/05/13 04:33:37;;;;;;;0.10;0.10;;;;;;;;;;4955466;28;20437;-76
2023/05/13 04:36:22;;;;;;;0.10;0.10;;;;;;;;;;4941780;28;20546;-76
2023/05/13 04:39:09;;;;;;;0.10;0.10;;;;;;;;;;4954206;28;20137;-77
2023/05/13 04:41:55;;;;;;;0.10;0.10;;;;;;;;;;4954710;28;20041;-77
2023/05/13 04:44:41;;;;;;;0.10;0.10;;;;;;;;;;4956410;28;20039;-77
2023/05/13 04:47:27;;;;;;;0.10;0.10;;;;;;;;;;4957646;28;20034;-77
2023/05/13 04:50:13;;;;;;;0.10;0.10;;;;;;;;;;4955289;28;20384;-77
2023/05/13 04:52:59;;;;;;;0.10;0.10;;;;;;;;;;4927427;28;20035;-77
2023/05/13 04:55:45;;;;;;;0.10;0.10;;;;;;;;;;4956536;28;20097;-77
2023/05/13 04:58:32;;;;;;;0.20;0.20;;;;;;;;;;4940535;28;20041;-77
2023/05/13 05:01:17;;;;;;;0.10;0.10;;;;;;;;;;4940183;28;20181;-77
2023/05/13 05:04:04;;;;;;;0.10;0.10;;;;;;;;;;4956984;28;20050;-78
2023/05/13 05:06:50;;;;;;;0.10;0.10;;;;;;;;;;4939879;28;20111;-77
2023/05/13 05:09:36;;;;;;;0.10;0.10;;;;;;;;;;4953969;28;20510;-77
2023/05/13 05:12:22;;;;;;;0.10;0.10;;;;;;;;;;4955521;28;20492;-77
2023/05/13 05:15:14;;;;;;;0.10;0.10;;;;;;;;;;4953128;28;20085;-77
2023/05/13 05:18:00;;;;;;;0.17;0.17;;;;;;;;;;4941803;28;20583;-77
2023/05/13 05:20:46;;;;;;;0.10;0.10;;;;;;;;;;4942159;28;20030;-77
2023/05/13 05:23:35;;;;;;;0.20;0.20;;;;;;;;;;4929765;28;20037;-78
2023/05/13 05:26:21;;;;;;;0.10;0.10;;;;;;;;;;4948508;28;20567;-77
2023/05/13 05:29:07;;;;;;;0.10;0.10;;;;;;;;;;4958072;28;20226;-77
2023/05/13 05:31:53;;;;;;;0.13;0.13;;;;;;;;;;4957738;28;20038;-77
2023/05/13 05:34:39;;;;;;;0.10;0.10;;;;;;;;;;4957270;28;20035;-77
2023/05/13 05:37:26;;;;;;;0.10;0.10;;;;;;;;;;4944973;28;20396;-77
2023/05/13 05:40:12;;;;;;;0.10;0.10;;;;;;;;;;4944503;28;20306;-78
2023/05/13 05:42:59;;;;;;;0.20;0.20;;;;;;;;;;4944137;28;20558;-77
2023/05/13 05:45:45;;;;;;;0.10;0.10;;;;;;;;;;4942985;28;20043;-77
2023/05/13 05:48:35;;;;;;;0.15;0.15;;;;;;;;;;4941958;28;20049;-78
2023/05/13 05:51:22;;;;;;;0.10;0.10;;;;;;;;;;4931176;28;20399;-77
2023/05/13 05:54:08;;;;;;;0.10;0.10;;;;;;;;;;4957349;28;20038;-76
2023/05/13 05:56:55;;;;;;;0.20;0.20;;;;;;;;;;4958641;28;20416;-76
2023/05/13 05:59:41;;;;;;;0.17;0.17;;;;;;;;;;4957178;28;20109;-77
2023/05/13 06:02:27;;;;;;;0.10;0.10;;;;;;;;;;4943787;28;20482;-77
2023/05/13 06:05:13;;;;;;;0.20;0.20;;;;;;;;;;4957256;28;20146;-77
2023/05/13 06:08:00;;;;;;;0.17;0.17;;;;;;;;;;4956711;28;20078;-78
2023/05/13 06:10:46;;;;;;;0.10;0.10;;;;;;;;;;4958529;28;20395;-78
2023/05/13 06:13:32;;;;;;;0.10;0.10;;;;;;;;;;4958637;28;20479;-77
2023/05/13 06:16:18;;;;;;;0.10;0.10;;;;;;;;;;4957990;28;20045;-78
2023/05/13 06:19:03;;;;;;;0.13;0.13;;;;;;;;;;4946589;28;20041;-77
2023/05/13 06:21:49;;;;;;;0.10;0.10;;;;;;;;;;4958481;28;20034;-77
2023/05/13 06:24:37;;;;;;;0.17;0.17;;;;;;;;;;4958126;28;20043;-77
2023/05/13 06:27:23;;;;;;;0.20;0.20;;;;;;;;;;4942490;28;20030;-77
2023/05/13 06:30:09;;;;;;;0.20;0.20;;;;;;;;;;4944570;28;20128;-77
2023/05/13 06:32:56;;;;;;;0.15;0.15;;;;;;;;;;4960296;28;20498;-78
2023/05/13 06:35:46;;;;;;;0.15;0.15;;;;;;;;;;4959311;28;20039;-78
2023/05/13 06:38:33;;;;;;;0.10;0.10;;;;;;;;;;4957964;28;20031;-78
2023/05/13 06:41:20;;;;;;;0.10;0.10;;;;;;;;;;4959646;28;20037;-78
2023/05/13 06:44:06;;;;;;;0.17;0.17;;;;;;;;;;4958702;28;20039;-78
2023/05/13 06:46:57;;;;;;;0.23;0.20;;;;;;;;;;4946554;28;21028;-78
2023/05/13 06:49:43;;;;;;;0.10;0.10;;;;;;;;;;4957632;28;20046;-78
2023/05/13 06:52:30;;;;;;;0.10;0.10;;;;;;;;;;4946087;28;20657;-77
2023/05/13 06:55:17;;;;;;;0.20;0.20;;;;;;;;;;4958007;28;20041;-78
2023/05/13 06:58:03;;;;;;;0.10;0.10;;;;;;;;;;4959647;28;20038;-77
2023/05/13 07:00:49;;;;;;;0.10;0.10;;;;;;;;;;4956767;28;20038;-78
2023/05/13 07:03:35;;;;;;;0.13;0.13;;;;;;;;;;4957592;28;20039;-77
2023/05/13 07:06:21;;;;;;;0.20;0.20;;;;;;;;;;4943408;28;20081;-78
2023/05/13 07:09:10;;;;;;;0.10;0.10;;;;;;;;;;4943402;28;20333;-78
2023/05/13 07:11:55;;;;;;;0.20;0.20;;;;;;;;;;4959790;28;20134;-78
2023/05/13 07:14:44;;;;;;;0.20;0.20;;;;;;;;;;4956770;28;20125;-78
2023/05/13 07:17:30;;;;;;;0.17;0.17;;;;;;;;;;4946094;28;20133;-79
2023/05/13 07:20:18;;;;;;;0.17;0.17;;;;;;;;;;4959530;28;20132;-78
2023/05/13 07:23:03;;;;;;;0.10;0.10;;;;;;;;;;4943800;28;20045;-78
2023/05/13 07:25:50;;;;;;;0.20;0.20;;;;;;;;;;4958494;28;20050;-78
2023/05/13 07:28:36;;;;;;;0.20;0.20;;;;;;;;;;4933763;28;20051;-78
2023/05/13 07:31:21;;;;;;;0.20;0.20;;;;;;;;;;4941773;28;20351;-78
2023/05/13 07:34:07;;;;;;;0.10;0.10;;;;;;;;;;4940571;28;20039;-78
2023/05/13 07:36:53;;;;;;;0.10;0.10;;;;;;;;;;4938498;28;20039;-78
2023/05/13 07:39:38;;;;;;;0.30;0.30;;;;;;;;;;4937793;28;20023;-78
2023/05/13 07:42:26;;;;;;;0.17;0.17;;;;;;;;;;4938861;28;20081;-78
2023/05/13 07:45:11;;;;;;;0.10;0.10;;;;;;;;;;4938050;28;20079;-78
2023/05/13 07:47:57;;;;;;;0.10;0.10;;;;;;;;;;4938571;28;20031;-78
2023/05/13 07:50:43;;;;;;;0.20;0.20;;;;;;;;;;4937532;28;20487;-78
2023/05/13 07:53:29;;;;;;;0.10;0.10;;;;;;;;;;4921839;28;20038;-78
2023/05/13 07:56:15;;;;;;;0.13;0.13;;;;;;;;;;4939668;28;20035;-77
2023/05/13 07:59:00;;;;;;;0.20;0.20;;;;;;;;;;4939678;28;20082;-78
2023/05/13 08:01:46;;;;;;;0.10;0.10;;;;;;;;;;4936959;28;20043;-78
2023/05/13 08:04:32;;;;;;;0.20;0.20;;;;;;;;;;4936169;28;20415;-78
2023/05/13 08:07:18;;;;;;;0.22;0.20;;;;;;;;;;4938361;28;20031;-77
2023/05/13 08:10:04;;;;;;;0.20;0.20;;;;;;;;;;4936792;28;20432;-78
2023/05/13 08:12:53;;;;;;;0.20;0.20;;;;;;;;;;4937643;28;20305;-77
2023/05/13 08:15:38;;;;;;;0.20;0.20;;;;;;;;;;4938761;28;20047;-78
2023/05/13 08:18:24;;;;;;;0.20;0.20;;;;;;;;;;4939254;28;20035;-77
2023/05/13 08:21:10;;;;;;;0.10;0.10;;;;;;;;;;4938274;28;20031;-76
2023/05/13 08:23:55;;;;;;;0.20;0.20;;;;;;;;;;4938024;28;20066;-78
2023/05/13 08:26:44;;;;;;;0.10;0.10;;;;;;;;;;4938431;28;20125;-78
2023/05/13 08:29:30;;;;;;;0.10;0.10;;;;;;;;;;4937512;28;20051;-78
2023/05/13 08:32:16;;;;;;;0.13;0.13;;;;;;;;;;4957060;28;20117;-78
2023/05/13 08:35:01;;;;;;;0.10;0.10;;;;;;;;;;4958454;28;20039;-78
2023/05/13 08:37:47;;;;;;;0.10;0.10;;;;;;;;;;4957473;28;20415;-78
2023/05/13 08:40:33;;;;;;;0.17;0.17;;;;;;;;;;4958694;28;20510;-78
2023/05/13 08:43:19;;;;;;;0.32;0.20;;;;;;;;;;4957575;28;20216;-78
2023/05/13 08:46:07;;;;;;;0.20;0.20;;;;;;;;;;4957156;28;20486;-78
2023/05/13 08:48:53;;;;;;;0.10;0.10;;;;;;;;;;4956595;28;20420;-79
2023/05/13 08:51:40;;;;;;;0.10;0.10;;;;;;;;;;4958006;28;20027;-79
2023/05/13 08:54:27;;;;;;;0.20;0.20;;;;;;;;;;4943311;28;20262;-79
2023/05/13 08:57:12;;;;;;;0.20;0.20;;;;;;;;;;4958282;28;20486;-79
2023/05/13 08:59:58;;;;;;;0.13;0.10;;;;;;;;;;4959594;28;20029;-78
2023/05/13 09:02:44;;;;;;;0.10;0.10;;;;;;;;;;4957781;28;20034;-78
2023/05/13 09:05:30;;;;;;;0.10;0.10;;;;;;;;;;4961393;28;20045;-78
2023/05/13 09:08:16;;;;;;;0.10;0.10;;;;;;;;;;4943139;28;20042;-78
2023/05/13 09:11:02;;;;;;;0.10;0.10;;;;;;;;;;4961397;28;20035;-78
2023/05/13 09:14:01;;;;;;;0.10;0.10;;;;;;;;;;4960377;28;20097;-79
2023/05/13 09:16:47;;;;;;;0.30;0.20;;;;;;;;;;4961562;28;20462;-78
2023/05/13 09:19:34;;;;;;;0.17;0.17;;;;;;;;;;4959461;28;20031;-78
2023/05/13 09:22:20;;;;;;;0.20;0.20;;;;;;;;;;4960784;28;20034;-79
2023/05/13 09:25:06;;;;;;;0.20;0.20;;;;;;;;;;4959967;28;20050;-79
2023/05/13 09:27:56;;;;;;;0.10;0.10;;;;;;;;;;4959324;28;20146;-79
2023/05/13 09:30:43;;;;;;;0.13;0.13;;;;;;;;;;4961378;28;20051;-79
2023/05/13 09:33:31;;;;;;;0.20;0.20;;;;;;;;;;4961937;28;20153;-77
2023/05/13 09:36:17;;;;;;;0.10;0.10;;;;;;;;;;4945153;28;20050;-77
2023/05/13 09:39:02;;;;;;;0.10;0.10;;;;;;;;;;4959881;28;20101;-77
2023/05/13 09:41:48;;;;;;;0.10;0.10;;;;;;;;;;4958803;28;20035;-77
2023/05/13 09:44:34;;;;;;;0.10;0.10;;;;;;;;;;4944465;28;20050;-78
2023/05/13 09:47:23;;;;;;;0.10;0.10;;;;;;;;;;4959459;28;20297;-77
2023/05/13 09:50:10;;;;;;;0.10;0.10;;;;;;;;;;4960132;28;20806;-78
2023/05/13 09:52:56;;;;;;;0.20;0.20;;;;;;;;;;4944996;28;20037;-78
2023/05/13 09:55:48;;;;;;;0.15;0.15;;;;;;;;;;4958462;28;20031;-78
2023/05/13 09:58:34;;;;;;;0.17;0.17;;;;;;;;;;4959723;28;20099;-78
2023/05/13 10:01:21;;;;;;;0.15;0.15;;;;;;;;;;4960509;28;20043;-78
2023/05/13 10:04:07;;;;;;;0.10;0.10;;;;;;;;;;4960023;28;20543;-78
2023/05/13 10:06:53;;;;;;;0.10;0.10;;;;;;;;;;4957681;28;20034;-78
2023/05/13 10:09:39;;;;;;;0.15;0.15;;;;;;;;;;4957202;28;20043;-77
2023/05/13 10:12:25;;;;;;;0.10;0.10;;;;;;;;;;4960825;28;20098;-77
2023/05/13 10:15:11;;;;;;;0.10;0.10;;;;;;;;;;4960313;28;20039;-77
2023/05/13 10:17:58;;;;;;;0.20;0.20;;;;;;;;;;4959373;28;20038;-77
2023/05/13 10:20:44;;;;;;;0.20;0.20;;;;;;;;;;4961286;28;20043;-77
2023/05/13 10:23:31;;;;;;;0.10;0.10;;;;;;;;;;4958929;28;20026;-77
2023/05/13 10:26:19;;;;;;;0.10;0.10;;;;;;;;;;4960294;28;20507;-77
2023/05/13 10:29:05;;;;;;;0.13;0.10;;;;;;;;;;4959390;28;20058;-77
2023/05/13 10:31:51;;;;;;;0.15;0.15;;;;;;;;;;4940665;28;20716;-77
2023/05/13 10:34:37;;;;;;;0.28;0.20;;;;;;;;;;4956887;28;20240;-77
2023/05/13 10:37:32;;;;;;;0.17;0.17;;;;;;;;;;4960050;28;20093;-77
2023/05/13 10:40:18;;;;;;;0.10;0.10;;;;;;;;;;4959302;28;20111;-77
2023/05/13 10:43:25;;;;;;;0.10;0.10;;;;;;;;;;4959700;28;20037;-77
2023/05/13 10:46:11;;;;;;;0.20;0.20;;;;;;;;;;4958265;28;20049;-77
2023/05/13 10:48:58;;;;;;;0.10;0.10;;;;;;;;;;4959184;28;20126;-77
2023/05/13 10:51:48;;;;;;;0.20;0.20;;;;;;;;;;4958611;28;20114;-77
2023/05/13 10:54:38;;;;;;;0.22;0.22;;;;;;;;;;4957604;28;20081;-77
2023/05/13 10:57:35;;;;;;;0.20;0.20;;;;;;;;;;4959327;28;20035;-77
2023/05/13 11:00:29;;;;;;;0.10;0.10;;;;;;;;;;4945695;28;20097;-78
2023/05/13 11:03:17;;;;;;;0.20;0.20;;;;;;;;;;4958494;28;20034;-77
2023/05/13 11:06:12;;;;;;;0.22;0.20;;;;;;;;;;4959683;28;20043;-77
2023/05/13 11:08:58;;;;;;;0.20;0.20;;;;;;;;;;4959168;28;20384;-77
2023/05/13 11:11:48;;;;;;;0.15;0.15;;;;;;;;;;4959566;28;20107;-78
2023/05/13 11:14:33;;;;;;;0.20;0.20;;;;;;;;;;4957687;28;20177;-77
2023/05/13 11:17:19;;;;;;;0.20;0.20;;;;;;;;;;4960490;28;20070;-77
2023/05/13 11:20:05;;;;;;;0.20;0.20;;;;;;;;;;4959358;28;20093;-78
2023/05/13 11:22:51;;;;;;;0.10;0.10;;;;;;;;;;4959573;28;20089;-78
2023/05/13 11:25:36;;;;;;;0.20;0.20;;;;;;;;;;4958488;28;20042;-78
2023/05/13 11:28:41;;;;;;;0.20;0.20;;;;;;;;;;4948144;28;20048;-78
2023/05/13 11:31:27;;;;;;;0.10;0.10;;;;;;;;;;4940728;28;20594;-77
2023/05/13 11:34:16;;;;;;;0.10;0.10;;;;;;;;;;4939818;28;20528;-78
2023/05/13 11:37:02;;;;;;;0.10;0.10;;;;;;;;;;4940016;28;20412;-77
2023/05/13 11:39:48;;;;;;;0.20;0.20;;;;;;;;;;4922122;29;20031;-78
2023/05/13 11:42:34;;;;;;;0.20;0.20;;;;;;;;;;4939729;28;20042;-77
2023/05/13 11:45:22;;;;;;;0.10;0.10;;;;;;;;;;4939185;28;20043;-78
2023/05/13 11:48:21;;;;;;;0.20;0.20;;;;;;;;;;4924070;28;20142;-78
2023/05/13 11:51:07;;;;;;;0.30;0.30;;;;;;;;;;4941137;28;20042;-78
2023/05/13 11:54:00;;;;;;;0.30;0.30;;;;;;;;;;4939226;28;20114;-78
2023/05/13 11:56:46;;;;;;;0.20;0.20;;;;;;;;;;4938095;28;20035;-78
2023/05/13 11:59:32;;;;;;;0.20;0.20;;;;;;;;;;4938204;28;20159;-78
2023/05/13 12:02:22;;;;;;;0.10;0.10;;;;;;;;;;4939877;28;20054;-78
2023/05/13 12:05:09;;;;;;;0.10;0.10;;;;;;;;;;4937793;28;20055;-77
2023/05/13 12:07:56;;;;;;;0.10;0.10;;;;;;;;;;4939110;28;20035;-78
2023/05/13 12:10:42;;;;;;;0.30;0.30;;;;;;;;;;4925084;28;20036;-78
2023/05/13 12:13:28;;;;;;;0.20;0.20;;;;;;;;;;4939705;28;20035;-78
2023/05/13 12:16:14;;;;;;;0.20;0.20;;;;;;;;;;4939314;28;20027;-78
2023/05/13 12:19:03;;;;;;;0.20;0.20;;;;;;;;;;4939139;28;20133;-78
2023/05/13 12:21:50;;;;;;;0.10;0.10;;;;;;;;;;4939480;28;20034;-78
2023/05/13 12:24:36;;;;;;;0.10;0.10;;;;;;;;;;4924136;28;20047;-78
2023/05/13 12:27:21;;;;;;;0.10;0.10;;;;;;;;;;4939492;28;20082;-78
2023/05/13 12:30:13;;;;;;;0.10;0.10;;;;;;;;;;4922226;28;20053;-78
2023/05/13 12:32:58;;;;;;;0.20;0.20;;;;;;;;;;4937944;28;20039;-78
2023/05/13 12:35:47;;;;;;;0.10;0.10;;;;;;;;;;4939216;28;20043;-79
2023/05/13 12:38:32;;;;;;;0.00;0.00;;;;;;;;;;4939912;28;20067;-78
2023/05/13 12:41:18;;;;;;;0.10;0.10;;;;;;;;;;4923549;29;20038;-79
2023/05/13 12:44:08;;;;;;;0.10;0.10;;;;;;;;;;4938932;28;20468;-78
2023/05/13 12:46:58;;;;;;;0.10;0.10;;;;;;;;;;4936264;28;20433;-78
2023/05/13 12:49:50;;;;;;;0.10;0.10;;;;;;;;;;4940527;28;20069;-78
2023/05/13 12:52:36;;;;;;;0.10;0.10;;;;;;;;;;4941480;28;20603;-77
2023/05/13 12:55:21;;;;;;;0.00;0.00;;;;;;;;;;4939935;28;20064;-77
2023/05/13 12:58:09;;;;;;;0.10;0.10;;;;;;;;;;4940826;28;20044;-77
2023/05/13 13:00:55;;;;;;;0.10;0.10;;;;;;;;;;4937956;28;20039;-78
2023/05/13 13:03:41;;;;;;;0.10;0.10;;;;;;;;;;4938850;28;20735;-78
2023/05/13 13:06:27;;;;;;;0.10;0.10;;;;;;;;;;4940939;28;20044;-77
2023/05/13 13:09:12;;;;;;;0.10;0.10;;;;;;;;;;4924969;28;20036;-78
2023/05/13 13:11:58;;;;;;;0.10;0.10;;;;;;;;;;4939650;28;20039;-78
2023/05/13 13:14:44;;;;;;;0.10;0.10;;;;;;;;;;4940700;28;20404;-77
2023/05/13 13:17:29;;;;;;;0.10;0.10;;;;;;;;;;4941238;28;20106;-77
2023/05/13 13:20:15;;;;;;;0.10;0.10;;;;;;;;;;4939848;28;20038;-77
2023/05/13 13:23:01;;;;;;;0.10;0.10;;;;;;;;;;4936565;28;20040;-77
2023/05/13 13:25:46;;;;;;;0.10;0.10;;;;;;;;;;4938772;28;20047;-77
2023/05/13 13:28:32;;;;;;;0.13;0.13;;;;;;;;;;4946335;28;20554;-77
2023/05/13 13:31:18;;;;;;;0.20;0.20;;;;;;;;;;4962229;28;20038;-77
2023/05/13 13:34:04;;;;;;;0.30;0.30;;;;;;;;;;4960763;28;20077;-77
2023/05/13 13:36:50;;;;;;;0.20;0.20;;;;;;;;;;4960605;28;20141;-77
2023/05/13 13:39:36;;;;;;;0.20;0.20;;;;;;;;;;4959172;28;20031;-77
2023/05/13 13:42:21;;;;;;;0.20;0.20;;;;;;;;;;4944359;28;20105;-77
2023/05/13 13:45:07;;;;;;;0.20;0.20;;;;;;;;;;4960202;28;20049;-78
2023/05/13 13:47:53;;;;;;;0.08;0.08;;;;;;;;;;4960218;28;20035;-78
2023/05/13 13:50:39;;;;;;;0.05;0.05;;;;;;;;;;4960029;28;20044;-78
2023/05/13 13:53:25;;;;;;;0.10;0.10;;;;;;;;;;4958750;28;20097;-78
2023/05/13 13:56:10;;;;;;;0.20;0.20;;;;;;;;;;4943701;28;20133;-78
2023/05/13 13:58:56;;;;;;;0.10;0.10;;;;;;;;;;4959636;28;20038;-78
2023/05/13 14:01:43;;;;;;;0.10;0.10;;;;;;;;;;4959890;28;20050;-78
2023/05/13 14:04:29;;;;;;;0.10;0.10;;;;;;;;;;4963411;28;20106;-77
2023/05/13 14:07:15;;;;;;;0.10;0.10;;;;;;;;;;4956553;28;20035;-78
2023/05/13 14:10:01;;;;;;;0.20;0.20;;;;;;;;;;4958822;28;20061;-78
2023/05/13 14:12:46;;;;;;;0.20;0.20;;;;;;;;;;4959827;28;20039;-77
2023/05/13 14:15:32;;;;;;;0.10;0.10;;;;;;;;;;4959320;28;20058;-77
2023/05/13 14:18:18;;;;;;;0.00;0.00;;;;;;;;;;4958531;28;20556;-77
2023/05/13 14:21:03;;;;;;;0.10;0.10;;;;;;;;;;4961471;28;20500;-77
2023/05/13 14:23:49;;;;;;;0.10;0.10;;;;;;;;;;4960456;28;20054;-77
2023/05/13 14:26:35;;;;;;;0.10;0.10;;;;;;;;;;4956356;28;20035;-77
2023/05/13 14:29:20;;;;;;;0.10;0.10;;;;;;;;;;4959892;28;20053;-77
2023/05/13 14:32:06;;;;;;;0.20;0.20;;;;;;;;;;4959873;28;20740;-78
2023/05/13 14:34:52;;;;;;;0.10;0.10;;;;;;;;;;4958463;28;20031;-77
2023/05/13 14:37:38;;;;;;;0.10;0.10;;;;;;;;;;4958478;28;20268;-77
2023/05/13 14:40:23;;;;;;;0.10;0.10;;;;;;;;;;4959758;28;20033;-77
2023/05/13 14:43:09;;;;;;;0.10;0.10;;;;;;;;;;4959522;28;20031;-77
2023/05/13 14:45:55;;;;;;;0.20;0.20;;;;;;;;;;4958439;28;20129;-77
2023/05/13 14:48:41;;;;;;;0.20;0.20;;;;;;;;;;4960030;28;20499;-77
2023/05/13 14:51:26;;;;;;;0.10;0.10;;;;;;;;;;4932144;28;20077;-77
2023/05/13 14:54:12;;;;;;;0.20;0.20;;;;;;;;;;4945118;28;20051;-77
2023/05/13 14:56:58;;;;;;;0.20;0.20;;;;;;;;;;4941884;28;20097;-77
2023/05/13 14:59:44;;;;;;;0.20;0.20;;;;;;;;;;4954277;28;20523;-77
2023/05/13 15:02:30;;;;;;;0.20;0.20;;;;;;;;;;4956819;28;20038;-77
2023/05/13 15:05:15;;;;;;;0.20;0.20;;;;;;;;;;4957385;28;20043;-78
2023/05/13 15:08:01;;;;;;;0.20;0.20;;;;;;;;;;4955794;28;20173;-78
2023/05/13 15:10:47;;;;;;;0.13;0.13;;;;;;;;;;4958764;28;20031;-78
2023/05/13 15:13:34;;;;;;;0.10;0.10;;;;;;;;;;4957083;28;20093;-77
2023/05/13 15:16:20;;;;;;;0.20;0.20;;;;;;;;;;4954890;28;20486;-78
2023/05/13 15:19:06;;;;;;;0.10;0.10;;;;;;;;;;4960050;28;20058;-77
2023/05/13 15:21:52;;;;;;;0.10;0.10;;;;;;;;;;4956225;28;20031;-78
2023/05/13 15:24:40;;;;;;;0.10;0.10;;;;;;;;;;4958095;28;20407;-77
2023/05/13 15:27:27;;;;;;;0.10;0.10;;;;;;;;;;4944113;28;20070;-77
2023/05/13 15:30:12;;;;;;;0.10;0.10;;;;;;;;;;4953625;28;20121;-77
2023/05/13 15:32:58;;;;;;;0.10;0.10;;;;;;;;;;4956442;28;20647;-77
2023/05/13 15:35:44;;;;;;;0.10;0.10;;;;;;;;;;4959165;28;20543;-77
2023/05/13 15:38:30;;;;;;;0.10;0.10;;;;;;;;;;4959067;28;20031;-76
2023/05/13 15:41:15;;;;;;;0.10;0.10;;;;;;;;;;4958077;28;20034;-77
2023/05/13 15:44:01;;;;;;;0.10;0.10;;;;;;;;;;4959480;28;20472;-76
2023/05/13 15:46:47;;;;;;;0.10;0.10;;;;;;;;;;4955645;28;20037;-76
2023/05/13 15:49:33;;;;;;;0.10;0.10;;;;;;;;;;4956369;28;20030;-76
2023/05/13 15:52:19;;;;;;;0.10;0.10;;;;;;;;;;4960236;28;20046;-76
2023/05/13 15:55:05;;;;;;;0.10;0.10;;;;;;;;;;4956410;28;20034;-76
2023/05/13 15:57:50;;;;;;;0.10;0.10;;;;;;;;;;4956389;28;20043;-76
2023/05/13 16:00:36;;;;;;;0.10;0.10;;;;;;;;;;4947493;28;20105;-76
2023/05/13 16:03:22;;;;;;;0.20;0.20;;;;;;;;;;4940208;28;20034;-77
2023/05/13 16:06:08;;;;;;;0.10;0.10;;;;;;;;;;4957959;28;20137;-77
2023/05/13 16:08:53;;;;;;;0.13;0.13;;;;;;;;;;4956464;28;20031;-77
2023/05/13 16:11:39;;;;;;;0.20;0.20;;;;;;;;;;4956805;28;20037;-76
2023/05/13 16:14:25;;;;;;;0.30;0.22;;;;;;;;;;4929757;28;20049;-76
2023/05/13 16:17:11;;;;;;;0.10;0.10;;;;;;;;;;4943413;28;20089;-76
2023/05/13 16:19:58;;;;;;;0.20;0.20;;;;;;;;;;4954247;28;20074;-77
2023/05/13 16:22:44;;;;;;;0.10;0.10;;;;;;;;;;4957128;28;20121;-76
2023/05/13 16:25:30;;;;;;;0.10;0.10;;;;;;;;;;4959065;28;20149;-76
2023/05/13 16:28:15;;;;;;;0.10;0.10;;;;;;;;;;4954414;28;20136;-77
2023/05/13 16:31:01;;;;;;;0.10;0.10;;;;;;;;;;4957027;28;20821;-77
2023/05/13 16:33:47;;;;;;;0.13;0.13;;;;;;;;;;4956929;28;20035;-77
2023/05/13 16:36:32;;;;;;;0.10;0.10;;;;;;;;;;4958399;28;20118;-77
2023/05/13 16:39:18;;;;;;;0.20;0.20;;;;;;;;;;4954583;28;20031;-77